Grand Forks Air Force Base Grand Forks US
ICAO: KRDR
IATA: RDR
Category: Medium
Scheduled Services: No

Elevation: 913 ft
TransAlt. 18000 ft.

Airport Communications:
APP/DEP:118.1
ATIS:27.345
CLNC DEL:119.15
GND:119.15
PMSV METRO:34.35
COMD POST:31.1
PTD:37.22
RDO:122.2
RED RIVER TWR:124.9

KRDR Zoom In..

Runways:

(A) RW 17 length 12351 ft width 150 ft
ILS 111.30 / hdg 174

(B) RW 35 length 12351 ft width 150 ft
ILS 109.90 / hdg 354

Location; KRDR
Day. 19 / Time. 20.56 Zulu
* Altimeter: 29.78
* Temperature: 26° c. 78.8°f.
* Wind from: 000° Speed 00 kn.
Dewpoint: 20° c.
Visibility: 10 Statute Miles.
Clouds: Few 13000 ft.
Clouds: Broken 17000 ft.
Clouds: Broken 19000 ft.

KRDR 192056Z AUTO 00000KT 10SM FEW130 BKN170 BKN190 26/20 A2978 RMK AO2 DZE01 SLP086 P0000 60000 T02600201 58009


Wind - Calm.

 
 
jpsmedia.com for Web Design worldairports.se 2018   terms of use